createdAt,value
2018-05-23T00:01:10.243Z,13.80
2018-05-23T00:03:37.810Z,13.80
2018-05-23T00:06:05.381Z,13.90
2018-05-23T00:08:32.975Z,13.90
2018-05-23T00:11:00.540Z,13.90
2018-05-23T00:13:28.097Z,13.90
2018-05-23T00:15:55.648Z,14.00
2018-05-23T00:18:23.223Z,14.00
2018-05-23T00:20:50.774Z,13.90
2018-05-23T00:23:18.344Z,14.00
2018-05-23T00:25:45.889Z,13.90
2018-05-23T00:28:13.457Z,13.90
2018-05-23T00:30:40.990Z,13.90
2018-05-23T00:33:08.578Z,13.90
2018-05-23T00:35:36.136Z,14.00
2018-05-23T00:38:03.689Z,13.90
2018-05-23T00:40:31.258Z,13.80
2018-05-23T00:42:58.821Z,13.80
2018-05-23T00:45:26.397Z,13.80
2018-05-23T00:47:53.941Z,13.90
2018-05-23T00:50:21.628Z,13.90
2018-05-23T00:52:49.849Z,14.10
2018-05-23T00:55:29.326Z,14.00
2018-05-23T00:57:56.877Z,14.10
2018-05-23T01:00:24.450Z,14.10
2018-05-23T01:02:51.996Z,14.20
2018-05-23T01:05:19.566Z,14.20
2018-05-23T01:07:47.124Z,14.20
2018-05-23T01:10:14.715Z,14.10
2018-05-23T01:12:43.041Z,14.10
2018-05-23T01:15:10.614Z,14.10
2018-05-23T01:17:38.170Z,14.10
2018-05-23T01:20:05.758Z,14.20
2018-05-23T01:22:33.303Z,14.10
2018-05-23T01:25:00.867Z,14.10
2018-05-23T01:27:28.428Z,14.20
2018-05-23T01:29:56.004Z,14.10
2018-05-23T01:32:24.305Z,14.00
2018-05-23T01:34:52.497Z,14.00
2018-05-23T01:37:20.060Z,13.90
2018-05-23T01:39:47.643Z,14.00
2018-05-23T01:42:15.189Z,14.10
2018-05-23T01:44:42.765Z,14.10
2018-05-23T01:47:10.306Z,14.10
2018-05-23T01:49:37.911Z,14.00
2018-05-23T01:52:06.244Z,14.10
2018-05-23T01:54:33.810Z,14.00
2018-05-23T01:57:01.352Z,14.10
2018-05-23T01:59:28.933Z,14.00
2018-05-23T02:01:56.469Z,14.00
2018-05-23T02:04:24.055Z,13.90
2018-05-23T02:06:51.598Z,14.00
2018-05-23T02:09:19.174Z,13.90
2018-05-23T02:11:46.733Z,13.80
2018-05-23T02:14:14.298Z,13.80
2018-05-23T02:16:41.847Z,13.80
2018-05-23T02:19:09.444Z,13.80
2018-05-23T02:21:36.991Z,13.80
2018-05-23T02:24:04.576Z,13.80
2018-05-23T02:26:32.907Z,13.80
2018-05-23T02:29:00.486Z,13.80
2018-05-23T02:31:28.031Z,13.80
2018-05-23T02:33:55.608Z,13.90
2018-05-23T02:36:23.160Z,13.80
2018-05-23T02:38:50.756Z,13.70
2018-05-23T02:41:19.067Z,13.60
2018-05-23T02:43:46.669Z,13.60
2018-05-23T02:46:20.094Z,13.60
2018-05-23T02:48:48.446Z,13.60
2018-05-23T02:51:16.010Z,13.50
2018-05-23T02:53:43.612Z,13.60
2018-05-23T02:56:11.168Z,13.60
2018-05-23T02:58:38.730Z,13.50
2018-05-23T03:01:06.300Z,13.50
2018-05-23T03:03:33.859Z,13.60
2018-05-23T03:06:01.434Z,13.60
2018-05-23T03:08:28.991Z,13.60
2018-05-23T03:10:56.554Z,13.50
2018-05-23T03:13:24.129Z,13.50
2018-05-23T03:15:51.694Z,13.50
2018-05-23T03:18:19.257Z,13.50
2018-05-23T03:20:46.834Z,13.50
2018-05-23T03:23:14.399Z,13.50
2018-05-23T03:25:41.995Z,13.50
2018-05-23T03:28:09.567Z,13.70
2018-05-23T03:30:37.136Z,13.70
2018-05-23T03:33:04.694Z,13.80
2018-05-23T03:35:32.278Z,13.70
2018-05-23T03:37:59.830Z,13.70
2018-05-23T03:40:27.390Z,13.70
2018-05-23T03:42:54.945Z,13.80
2018-05-23T03:45:22.518Z,13.70
2018-05-23T03:47:50.058Z,13.60
2018-05-23T03:50:17.628Z,13.70
2018-05-23T03:52:45.192Z,13.70
2018-05-23T03:55:12.785Z,13.70
2018-05-23T03:57:41.107Z,13.70
2018-05-23T04:03:26.499Z,13.70
2018-05-23T04:06:06.126Z,13.70
2018-05-23T04:08:33.717Z,13.70
2018-05-23T04:11:01.291Z,13.70
2018-05-23T04:13:28.857Z,13.70
2018-05-23T04:15:56.428Z,13.70
2018-05-23T04:18:23.988Z,13.80
2018-05-23T04:23:25.606Z,13.90
2018-05-23T04:25:53.203Z,13.90
2018-05-23T04:28:20.749Z,14.00
2018-05-23T04:30:48.317Z,13.90
2018-05-23T04:33:15.867Z,13.90
2018-05-23T04:35:43.446Z,14.00
2018-05-23T04:38:11.002Z,14.10
2018-05-23T04:40:38.570Z,14.10
2018-05-23T04:43:06.121Z,14.10
2018-05-23T04:45:33.702Z,14.20
2018-05-23T04:48:01.250Z,14.20
2018-05-23T04:50:28.822Z,14.20
2018-05-23T04:52:56.526Z,14.20
2018-05-23T04:55:24.622Z,14.20
2018-05-23T04:57:52.301Z,14.20
2018-05-23T05:00:19.881Z,14.20
2018-05-23T05:02:47.460Z,14.20
2018-05-23T05:05:21.206Z,14.20
2018-05-23T05:07:49.860Z,14.10
2018-05-23T05:10:18.200Z,14.10
2018-05-23T05:12:45.738Z,14.10
2018-05-23T05:15:13.308Z,14.40
2018-05-23T05:17:40.862Z,14.50
2018-05-23T05:20:08.443Z,14.50
2018-05-23T05:22:35.985Z,14.60
2018-05-23T05:25:03.607Z,14.60
2018-05-23T05:27:31.132Z,14.70
2018-05-23T05:29:59.715Z,14.70
2018-05-23T05:32:27.255Z,14.70
2018-05-23T05:34:54.838Z,14.90
2018-05-23T05:37:22.418Z,15.00
2018-05-23T05:39:50.760Z,15.10
2018-05-23T05:42:18.311Z,15.10
2018-05-23T05:44:45.900Z,15.00
2018-05-23T05:47:13.473Z,14.90
2018-05-23T05:49:41.815Z,15.10
2018-05-23T05:52:09.380Z,15.10
2018-05-23T05:54:36.914Z,15.30
2018-05-23T05:57:04.506Z,15.40
2018-05-23T05:59:32.050Z,15.50
2018-05-23T06:01:59.685Z,15.50
2018-05-23T06:07:02.052Z,15.80
2018-05-23T06:09:30.377Z,15.60
2018-05-23T06:11:57.973Z,15.50
2018-05-23T06:14:25.541Z,15.50
2018-05-23T06:16:53.898Z,15.50
2018-05-23T06:19:21.454Z,15.50
2018-05-23T06:21:49.047Z,15.50
2018-05-23T06:24:17.380Z,15.60
2018-05-23T06:26:44.970Z,15.60
2018-05-23T06:29:12.522Z,15.60
2018-05-23T06:54:02.666Z,16.30
2018-05-23T06:56:30.239Z,16.30
2018-05-23T06:58:57.806Z,16.20
2018-05-23T07:01:26.149Z,16.20
2018-05-23T07:03:54.478Z,17.00
2018-05-23T07:06:22.836Z,16.70
2018-05-23T07:08:50.376Z,16.70
2018-05-23T07:11:17.941Z,16.70
2018-05-23T07:13:45.493Z,16.50
2018-05-23T07:16:13.072Z,16.50
2018-05-23T07:18:40.616Z,17.10
2018-05-23T07:21:08.205Z,17.50
2018-05-23T07:23:36.538Z,18.20
2018-05-23T07:26:04.122Z,18.20
2018-05-23T07:28:31.676Z,18.00
2018-05-23T07:30:59.254Z,18.20
2018-05-23T07:33:27.601Z,18.90
2018-05-23T07:35:55.177Z,18.90
2018-05-23T07:38:22.756Z,18.50
2018-05-23T07:40:51.102Z,18.50
2018-05-23T07:43:18.645Z,18.50
2018-05-23T07:45:46.309Z,18.90
2018-05-23T07:48:13.789Z,19.00
2018-05-23T07:50:41.369Z,18.90
2018-05-23T07:53:08.926Z,19.20
2018-05-23T07:55:36.501Z,19.10
2018-05-23T07:58:04.805Z,19.70
2018-05-23T08:00:32.377Z,19.60
2018-05-23T08:02:59.915Z,19.00
2018-05-23T08:05:27.510Z,18.70
2018-05-23T08:07:55.072Z,19.50
2018-05-23T08:10:22.656Z,19.60
2018-05-23T08:12:50.232Z,18.90
2018-05-23T08:17:52.468Z,18.80
2018-05-23T08:20:20.060Z,19.30
2018-05-23T08:22:47.614Z,19.80
2018-05-23T08:25:15.160Z,20.10
2018-05-23T08:27:42.785Z,19.50
2018-05-23T08:30:10.356Z,19.20
2018-05-23T08:32:37.949Z,19.30
2018-05-23T08:35:05.520Z,19.90
2018-05-23T08:37:33.112Z,19.90
2018-05-23T08:40:01.442Z,21.20
2018-05-23T08:42:29.816Z,21.00
2018-05-23T08:44:57.371Z,21.00
2018-05-23T08:47:24.949Z,21.00
2018-05-23T08:49:53.116Z,20.70
2018-05-23T08:52:21.479Z,21.10
2018-05-23T08:54:49.090Z,21.20
2018-05-23T08:57:16.625Z,21.00
2018-05-23T08:59:44.176Z,21.30
2018-05-23T09:02:11.740Z,20.90
2018-05-23T09:04:40.131Z,21.60
2018-05-23T09:07:07.734Z,21.60
2018-05-23T09:09:36.054Z,21.40
2018-05-23T09:12:03.637Z,21.40
2018-05-23T09:14:31.209Z,21.40
2018-05-23T09:16:58.802Z,20.50
2018-05-23T09:19:26.372Z,20.60
2018-05-23T09:21:53.948Z,20.80
2018-05-23T09:24:21.485Z,20.40
2018-05-23T09:26:49.074Z,20.70
2018-05-23T09:29:16.669Z,21.50
2018-05-23T09:31:44.251Z,21.60
2018-05-23T09:34:12.586Z,21.50
2018-05-23T09:36:40.182Z,21.50
2018-05-23T09:39:08.648Z,21.60
2018-05-23T09:41:36.248Z,21.50
2018-05-23T09:44:03.803Z,22.00
2018-05-23T09:46:31.390Z,22.00
2018-05-23T09:48:58.953Z,22.10
2018-05-23T09:51:26.545Z,21.80
2018-05-23T09:53:54.085Z,22.00
2018-05-23T09:56:21.654Z,21.70
2018-05-23T09:58:49.195Z,21.90
2018-05-23T10:01:16.765Z,21.00
2018-05-23T10:03:44.377Z,21.30
2018-05-23T10:06:11.954Z,21.50
2018-05-23T10:08:39.516Z,21.60
2018-05-23T10:11:07.090Z,21.70
2018-05-23T10:13:34.618Z,21.80
2018-05-23T10:16:02.177Z,21.30
2018-05-23T10:18:30.487Z,21.60
2018-05-23T10:20:58.065Z,21.60
2018-05-23T10:23:25.618Z,21.70
2018-05-23T10:25:53.257Z,21.50
2018-05-23T10:28:20.810Z,21.40
2018-05-23T10:30:48.393Z,21.30
2018-05-23T10:33:15.968Z,21.20
2018-05-23T10:35:43.545Z,21.60
2018-05-23T10:38:11.138Z,21.10
2018-05-23T10:40:39.448Z,21.90
2018-05-23T10:43:07.045Z,21.90
2018-05-23T10:45:34.597Z,22.00
2018-05-23T10:48:02.172Z,22.00
2018-05-23T10:50:29.717Z,22.10
2018-05-23T10:52:57.303Z,21.50
2018-05-23T10:55:25.640Z,22.00
2018-05-23T10:57:53.222Z,22.00
2018-05-23T11:00:20.763Z,22.10
2018-05-23T11:02:48.374Z,22.20
2018-05-23T11:05:16.716Z,21.90
2018-05-23T11:07:44.340Z,21.90
2018-05-23T11:10:11.885Z,21.90
2018-05-23T11:12:39.452Z,22.20
2018-05-23T11:15:06.997Z,22.30
2018-05-23T11:20:08.500Z,22.20
2018-05-23T11:22:36.089Z,22.50
2018-05-23T11:25:03.625Z,22.90
2018-05-23T11:27:31.215Z,22.30
2018-05-23T11:29:58.768Z,23.00
2018-05-23T11:32:26.341Z,23.20
2018-05-23T11:34:53.892Z,23.30
2018-05-23T11:37:21.474Z,23.90
2018-05-23T11:39:49.786Z,24.20
2018-05-23T11:42:17.346Z,24.20
2018-05-23T11:44:44.889Z,24.60
2018-05-23T11:47:12.470Z,24.20
2018-05-23T11:49:40.011Z,24.50
2018-05-23T11:52:07.575Z,24.60
2018-05-23T11:54:35.131Z,25.30
2018-05-23T11:57:02.711Z,25.20
2018-05-23T11:59:30.246Z,24.70
2018-05-23T12:01:57.848Z,24.30
2018-05-23T12:04:25.392Z,24.30
2018-05-23T12:06:52.957Z,24.20
2018-05-23T12:09:20.515Z,24.20
2018-05-23T12:11:48.100Z,24.10
2018-05-23T12:14:15.653Z,24.20
2018-05-23T12:16:43.221Z,24.10
2018-05-23T12:19:10.759Z,24.10
2018-05-23T12:21:38.332Z,24.40
2018-05-23T12:24:05.885Z,24.20
2018-05-23T12:26:33.459Z,24.60
2018-05-23T12:29:01.016Z,23.80
2018-05-23T12:31:28.589Z,23.60
2018-05-23T12:33:56.138Z,23.70
2018-05-23T12:36:23.738Z,23.50
2018-05-23T12:38:52.054Z,23.00
2018-05-23T12:41:19.607Z,23.00
2018-05-23T12:43:47.184Z,23.10
2018-05-23T12:46:14.752Z,23.50
2018-05-23T12:48:42.330Z,24.10
2018-05-23T12:51:09.905Z,24.70
2018-05-23T12:53:38.287Z,25.10
2018-05-23T12:56:06.632Z,24.70
2018-05-23T12:58:34.253Z,24.70
2018-05-23T13:01:01.849Z,24.40
2018-05-23T13:03:29.512Z,23.80
2018-05-23T13:05:57.034Z,24.50
2018-05-23T13:08:24.636Z,25.00
2018-05-23T13:10:52.236Z,25.30
2018-05-23T13:13:20.585Z,25.20
2018-05-23T13:15:48.138Z,25.10
2018-05-23T13:18:15.714Z,24.90
2018-05-23T13:20:43.277Z,24.70
2018-05-23T13:23:10.850Z,24.80
2018-05-23T13:25:39.175Z,24.90
2018-05-23T13:28:06.767Z,24.80
2018-05-23T13:30:34.330Z,24.40
2018-05-23T13:33:01.945Z,24.50
2018-05-23T13:35:29.550Z,24.70
2018-05-23T13:37:57.121Z,24.30
2018-05-23T13:40:24.658Z,24.30
2018-05-23T13:42:52.245Z,24.40
2018-05-23T13:45:20.581Z,23.90
2018-05-23T13:47:48.163Z,23.90
2018-05-23T13:50:15.700Z,24.10
2018-05-23T13:52:43.301Z,24.30
2018-05-23T13:55:10.873Z,24.70
2018-05-23T13:57:39.213Z,24.50
2018-05-23T14:00:06.754Z,24.50
2018-05-23T14:02:34.322Z,24.50
2018-05-23T14:05:01.871Z,24.20
2018-05-23T14:07:29.502Z,23.90
2018-05-23T14:09:57.826Z,23.60
2018-05-23T14:12:25.437Z,23.50
2018-05-23T14:14:53.775Z,22.70
2018-05-23T14:17:21.341Z,22.70
2018-05-23T14:19:48.899Z,22.70
2018-05-23T14:22:16.476Z,22.70
2018-05-23T14:24:44.018Z,22.90
2018-05-23T14:27:11.606Z,22.90
2018-05-23T14:29:39.928Z,23.30
2018-05-23T14:32:07.497Z,23.30
2018-05-23T14:34:35.053Z,23.60
2018-05-23T14:37:02.622Z,23.50
2018-05-23T14:39:30.329Z,22.90
2018-05-23T14:41:58.666Z,23.50
2018-05-23T14:44:26.219Z,23.50
2018-05-23T14:46:53.805Z,23.80
2018-05-23T14:49:21.369Z,23.90
2018-05-23T14:51:48.930Z,23.90
2018-05-23T14:54:16.502Z,23.50
2018-05-23T14:56:44.816Z,23.80
2018-05-23T14:59:12.390Z,23.80
2018-05-23T15:01:39.953Z,23.80
2018-05-23T15:04:07.521Z,23.20
2018-05-23T15:06:35.063Z,23.20
2018-05-23T15:09:02.662Z,23.20
2018-05-23T15:11:30.279Z,23.10
2018-05-23T15:13:57.890Z,23.50
2018-05-23T15:16:25.462Z,23.60
2018-05-23T15:18:53.069Z,23.40
2018-05-23T15:21:20.653Z,23.50
2018-05-23T15:23:48.257Z,23.60
2018-05-23T15:26:15.817Z,23.40
2018-05-23T15:28:44.161Z,23.70
2018-05-23T15:31:11.713Z,23.70
2018-05-23T15:33:39.284Z,23.50
2018-05-23T15:36:06.982Z,23.00
2018-05-23T15:38:34.491Z,23.20
2018-05-23T15:41:02.028Z,23.00
2018-05-23T15:43:29.587Z,23.30
2018-05-23T15:45:57.158Z,23.80
2018-05-23T15:48:24.737Z,24.10
2018-05-23T15:50:52.284Z,24.10
2018-05-23T15:53:19.854Z,23.70
2018-05-23T15:55:47.413Z,23.90
2018-05-23T15:58:14.981Z,24.40
2018-05-23T16:00:43.304Z,24.10
2018-05-23T16:03:10.896Z,24.00
2018-05-23T16:05:38.447Z,24.10
2018-05-23T16:08:06.043Z,23.90
2018-05-23T16:10:33.608Z,24.80
2018-05-23T16:13:01.185Z,24.80
2018-05-23T16:15:28.745Z,25.20
2018-05-23T16:17:57.086Z,24.30
2018-05-23T16:20:24.660Z,24.30
2018-05-23T16:22:52.253Z,25.40
2018-05-23T16:25:20.551Z,25.90
2018-05-23T16:27:56.433Z,25.90
2018-05-23T16:30:23.988Z,26.10
2018-05-23T16:32:51.568Z,25.90
2018-05-23T16:35:19.126Z,25.10
2018-05-23T16:37:46.701Z,24.90
2018-05-23T16:40:14.310Z,24.40
2018-05-23T16:42:41.898Z,23.90
2018-05-23T16:45:09.442Z,23.60
2018-05-23T16:47:37.024Z,23.70
2018-05-23T16:50:04.570Z,23.60
2018-05-23T16:52:32.186Z,23.50
2018-05-23T16:55:00.537Z,23.50
2018-05-23T16:57:28.081Z,23.50
2018-05-23T16:59:55.658Z,23.40
2018-05-23T17:02:23.192Z,23.30
2018-05-23T17:04:50.760Z,22.90
2018-05-23T17:07:18.316Z,22.80
2018-05-23T17:09:45.876Z,22.70
2018-05-23T17:12:13.420Z,22.30
2018-05-23T17:14:40.985Z,22.10
2018-05-23T17:17:08.549Z,22.00
2018-05-23T17:19:36.123Z,21.90
2018-05-23T17:22:03.662Z,21.70
2018-05-23T17:24:31.231Z,21.60
2018-05-23T17:26:58.772Z,21.50
2018-05-23T17:29:26.350Z,21.60
2018-05-23T17:31:53.888Z,21.70
2018-05-23T17:34:21.462Z,21.70
2018-05-23T17:36:49.011Z,21.50
2018-05-23T17:39:16.590Z,21.50
2018-05-23T17:41:44.372Z,21.40
2018-05-23T17:44:11.926Z,21.20
2018-05-23T17:46:39.539Z,21.30
2018-05-23T17:49:07.863Z,21.40
2018-05-23T17:51:35.465Z,21.30
2018-05-23T17:54:03.783Z,21.40
2018-05-23T17:56:31.362Z,21.30
2018-05-23T17:58:58.909Z,21.20
2018-05-23T18:01:26.489Z,21.20
2018-05-23T18:03:54.036Z,21.10
2018-05-23T18:06:21.665Z,21.10
2018-05-23T18:08:49.173Z,21.20
2018-05-23T18:11:16.793Z,21.00
2018-05-23T18:13:44.342Z,20.50
2018-05-23T18:16:12.696Z,19.90
2018-05-23T18:18:40.232Z,19.80
2018-05-23T18:21:07.797Z,19.60
2018-05-23T18:23:35.449Z,19.40
2018-05-23T18:26:03.704Z,18.70
2018-05-23T18:28:31.289Z,18.70
2018-05-23T18:30:58.853Z,18.20
2018-05-23T18:33:26.396Z,17.50
2018-05-23T18:35:53.974Z,17.00
2018-05-23T18:38:21.531Z,16.50
2018-05-23T18:40:49.185Z,16.30
2018-05-23T18:43:16.748Z,16.00
2018-05-23T18:45:44.330Z,16.00
2018-05-23T18:48:11.901Z,15.90
2018-05-23T18:50:39.501Z,15.90
2018-05-23T18:53:07.063Z,15.90
2018-05-23T18:55:34.609Z,15.90
2018-05-23T18:58:02.201Z,16.00
2018-05-23T19:00:29.767Z,15.90
2018-05-23T19:02:57.352Z,15.80
2018-05-23T19:05:25.001Z,15.80
2018-05-23T19:07:53.290Z,15.80
2018-05-23T19:10:20.871Z,15.80
2018-05-23T19:12:49.217Z,15.80
2018-05-23T19:15:16.788Z,15.70
2018-05-23T19:17:44.415Z,15.70
2018-05-23T19:20:11.976Z,15.70
2018-05-23T19:22:39.566Z,15.70
2018-05-23T19:25:07.133Z,15.70
2018-05-23T19:27:34.725Z,15.60
2018-05-23T19:30:03.037Z,15.70
2018-05-23T19:32:30.604Z,15.70
2018-05-23T19:34:58.161Z,15.70
2018-05-23T19:37:25.746Z,15.60
2018-05-23T19:39:53.373Z,15.50
2018-05-23T19:42:20.904Z,15.40
2018-05-23T19:44:49.238Z,15.40
2018-05-23T19:47:16.884Z,15.40
2018-05-23T19:49:45.165Z,15.30
2018-05-23T19:52:12.746Z,15.30
2018-05-23T19:54:40.302Z,15.30
2018-05-23T19:57:07.906Z,15.30
2018-05-23T19:59:35.468Z,15.40
2018-05-23T20:02:03.120Z,15.50
2018-05-23T20:04:30.615Z,15.50
2018-05-23T20:06:58.194Z,15.50
2018-05-23T20:09:25.744Z,15.60
2018-05-23T20:11:53.291Z,15.60
2018-05-23T20:14:20.974Z,15.60
2018-05-23T20:16:48.473Z,15.70
2018-05-23T20:21:50.603Z,15.50
2018-05-23T20:24:18.177Z,15.40
2018-05-23T20:26:45.733Z,15.40
2018-05-23T20:29:13.354Z,15.40
2018-05-23T20:31:41.665Z,15.40
2018-05-23T20:34:09.235Z,15.40
2018-05-23T20:36:36.783Z,15.40
2018-05-23T20:39:05.202Z,15.50
2018-05-23T20:41:32.751Z,15.50
2018-05-23T20:44:00.373Z,15.50
2018-05-23T20:46:27.919Z,15.50
2018-05-23T20:48:55.489Z,15.50
2018-05-23T20:51:23.035Z,15.60
2018-05-23T20:53:50.639Z,15.70
2018-05-23T20:56:18.197Z,15.70
2018-05-23T20:58:45.873Z,15.50
2018-05-23T21:01:13.331Z,15.50
2018-05-23T21:03:40.949Z,15.50
2018-05-23T21:06:08.518Z,15.60
2018-05-23T21:08:36.103Z,15.50
2018-05-23T21:11:03.657Z,15.60
2018-05-23T21:13:31.253Z,15.50
2018-05-23T21:15:58.813Z,15.60
2018-05-23T21:18:27.157Z,15.70
2018-05-23T21:20:54.704Z,15.60
2018-05-23T21:23:22.284Z,15.70
2018-05-23T21:25:49.881Z,15.70
2018-05-23T21:28:18.210Z,15.60
2018-05-23T21:30:45.779Z,15.60
2018-05-23T21:33:13.334Z,15.60
2018-05-23T21:35:40.922Z,15.50
2018-05-23T21:38:08.473Z,15.50
2018-05-23T21:40:36.089Z,15.60
2018-05-23T21:43:03.637Z,15.60
2018-05-23T21:45:31.240Z,15.60
2018-05-23T21:47:58.787Z,15.70
2018-05-23T21:50:26.373Z,15.50
2018-05-23T21:52:54.738Z,15.30
2018-05-23T21:55:22.322Z,15.30
2018-05-23T21:57:49.866Z,15.40
2018-05-23T22:00:17.435Z,15.30
2018-05-23T22:02:45.006Z,15.20
2018-05-23T22:05:12.592Z,15.20
2018-05-23T22:07:40.960Z,15.00
2018-05-23T22:10:09.305Z,15.00
2018-05-23T22:12:36.875Z,15.00
2018-05-23T22:15:04.454Z,15.00
2018-05-23T22:17:32.786Z,15.00
2018-05-23T22:20:00.395Z,15.00
2018-05-23T22:22:28.718Z,15.00
2018-05-23T22:24:56.329Z,15.00
2018-05-23T22:27:24.666Z,14.90
2018-05-23T22:29:52.246Z,14.90
2018-05-23T22:32:19.791Z,14.90
2018-05-23T22:34:47.379Z,14.90
2018-05-23T22:37:14.930Z,15.00
2018-05-23T22:39:42.518Z,15.00
2018-05-23T22:42:10.838Z,15.00
2018-05-23T22:44:38.417Z,15.00
2018-05-23T22:47:05.993Z,15.00
2018-05-23T22:49:33.557Z,15.00
2018-05-23T22:52:01.091Z,15.00
2018-05-23T22:54:28.661Z,15.10
2018-05-23T22:56:56.205Z,15.00
2018-05-23T22:59:23.773Z,15.00
2018-05-23T23:01:51.317Z,15.00
2018-05-23T23:04:18.907Z,14.90
2018-05-23T23:06:46.461Z,15.00
2018-05-23T23:09:14.037Z,14.90
2018-05-23T23:11:41.589Z,14.80
2018-05-23T23:14:09.165Z,14.90
2018-05-23T23:16:36.865Z,14.90
2018-05-23T23:19:04.458Z,14.90
2018-05-23T23:21:34.053Z,15.00
2018-05-23T23:24:01.625Z,14.90
2018-05-23T23:26:29.203Z,14.90
2018-05-23T23:28:56.831Z,14.90
2018-05-23T23:31:24.394Z,14.90
2018-05-23T23:33:51.949Z,14.80
2018-05-23T23:36:19.533Z,14.70
2018-05-23T23:38:47.097Z,14.60
2018-05-23T23:41:14.683Z,14.50
2018-05-23T23:43:43.006Z,14.30
2018-05-23T23:46:10.576Z,14.30
2018-05-23T23:48:38.129Z,14.30
2018-05-23T23:51:05.699Z,14.30
2018-05-23T23:53:33.255Z,14.30
2018-05-23T23:56:02.886Z,14.20
2018-05-23T23:58:30.434Z,14.20
